sensor_id;sensor_type;location;lat;lon;timestamp;pressure;altitude;pressure_sealevel;temperature;humidity
19884;BME280;10104;50.732;10.174;2023-07-29T00:00:09;97310.50;;;19.98;100.00
19884;BME280;10104;50.732;10.174;2023-07-29T00:02:34;97319.88;;;20.01;100.00
19884;BME280;10104;50.732;10.174;2023-07-29T00:04:56;97318.81;;;20.02;100.00
19884;BME280;10104;50.732;10.174;2023-07-29T00:07:17;97314.00;;;20.04;100.00
19884;BME280;10104;50.732;10.174;2023-07-29T00:09:39;97324.78;;;20.09;100.00
19884;BME280;10104;50.732;10.174;2023-07-29T00:12:00;97321.28;;;20.13;100.00
19884;BME280;10104;50.732;10.174;2023-07-29T00:14:22;97316.72;;;20.19;100.00
19884;BME280;10104;50.732;10.174;2023-07-29T00:16:43;97308.44;;;20.31;100.00
19884;BME280;10104;50.732;10.174;2023-07-29T00:19:06;97314.41;;;20.38;100.00
19884;BME280;10104;50.732;10.174;2023-07-29T00:21:28;97316.03;;;20.44;100.00
19884;BME280;10104;50.732;10.174;2023-07-29T00:23:49;97309.34;;;20.46;100.00
19884;BME280;10104;50.732;10.174;2023-07-29T00:26:11;97309.34;;;20.56;100.00
19884;BME280;10104;50.732;10.174;2023-07-29T00:28:32;97306.66;;;20.56;100.00
19884;BME280;10104;50.732;10.174;2023-07-29T00:30:54;97304.50;;;20.58;100.00
19884;BME280;10104;50.732;10.174;2023-07-29T00:33:15;97306.13;;;20.59;100.00
19884;BME280;10104;50.732;10.174;2023-07-29T00:35:37;97306.88;;;20.35;100.00
19884;BME280;10104;50.732;10.174;2023-07-29T00:37:59;97299.31;;;20.32;100.00
19884;BME280;10104;50.732;10.174;2023-07-29T00:40:22;97305.13;;;20.03;100.00
19884;BME280;10104;50.732;10.174;2023-07-29T00:42:43;97311.75;;;19.81;100.00
19884;BME280;10104;50.732;10.174;2023-07-29T00:45:05;97296.34;;;19.66;100.00
19884;BME280;10104;50.732;10.174;2023-07-29T00:47:29;97292.84;;;19.60;100.00
19884;BME280;10104;50.732;10.174;2023-07-29T00:49:50;97294.03;;;19.43;100.00
19884;BME280;10104;50.732;10.174;2023-07-29T00:52:12;97294.78;;;19.38;100.00
19884;BME280;10104;50.732;10.174;2023-07-29T00:54:34;97298.78;;;19.30;100.00
19884;BME280;10104;50.732;10.174;2023-07-29T00:56:55;97290.44;;;19.27;100.00
19884;BME280;10104;50.732;10.174;2023-07-29T00:59:17;97294.53;;;19.39;100.00
19884;BME280;10104;50.732;10.174;2023-07-29T01:01:39;97291.75;;;19.56;100.00
19884;BME280;10104;50.732;10.174;2023-07-29T01:04:00;97290.13;;;19.55;100.00
19884;BME280;10104;50.732;10.174;2023-07-29T01:09:09;97287.59;;;19.91;100.00
19884;BME280;10104;50.732;10.174;2023-07-29T01:11:53;97281.19;;;19.97;100.00
19884;BME280;10104;50.732;10.174;2023-07-29T01:14:37;97275.00;;;20.01;100.00
19884;BME280;10104;50.732;10.174;2023-07-29T01:17:03;97278.25;;;20.08;100.00
19884;BME280;10104;50.732;10.174;2023-07-29T01:19:47;97282.81;;;20.08;100.00
19884;BME280;10104;50.732;10.174;2023-07-29T01:22:16;97276.13;;;20.05;100.00
19884;BME280;10104;50.732;10.174;2023-07-29T01:24:39;97275.31;;;20.05;100.00
19884;BME280;10104;50.732;10.174;2023-07-29T01:27:00;97284.19;;;20.05;100.00
19884;BME280;10104;50.732;10.174;2023-07-29T01:29:23;97278.19;;;19.88;100.00
19884;BME280;10104;50.732;10.174;2023-07-29T01:31:46;97292.44;;;19.94;100.00
19884;BME280;10104;50.732;10.174;2023-07-29T01:34:29;97284.41;;;19.99;100.00
19884;BME280;10104;50.732;10.174;2023-07-29T01:36:54;97288.94;;;19.88;100.00
19884;BME280;10104;50.732;10.174;2023-07-29T01:39:23;97291.09;;;19.91;100.00
19884;BME280;10104;50.732;10.174;2023-07-29T01:41:48;97286.53;;;19.87;100.00
19884;BME280;10104;50.732;10.174;2023-07-29T01:44:11;97288.41;;;19.86;100.00
19884;BME280;10104;50.732;10.174;2023-07-29T01:46:34;97281.16;;;19.92;100.00
19884;BME280;10104;50.732;10.174;2023-07-29T01:48:56;97278.47;;;19.87;100.00
19884;BME280;10104;50.732;10.174;2023-07-29T01:51:17;97280.34;;;19.86;100.00
19884;BME280;10104;50.732;10.174;2023-07-29T01:53:39;97277.34;;;19.83;100.00
19884;BME280;10104;50.732;10.174;2023-07-29T01:56:02;97289.72;;;19.89;100.00
19884;BME280;10104;50.732;10.174;2023-07-29T01:58:24;97292.16;;;19.90;100.00
19884;BME280;10104;50.732;10.174;2023-07-29T02:00:45;97291.38;;;19.95;100.00
19884;BME280;10104;50.732;10.174;2023-07-29T02:03:07;97283.88;;;19.97;100.00
19884;BME280;10104;50.732;10.174;2023-07-29T02:05:28;97286.31;;;20.08;100.00
19884;BME280;10104;50.732;10.174;2023-07-29T02:07:50;97286.59;;;20.07;100.00
19884;BME280;10104;50.732;10.174;2023-07-29T02:10:12;97283.31;;;20.00;100.00
19884;BME280;10104;50.732;10.174;2023-07-29T02:12:34;97275.25;;;19.95;100.00
19884;BME280;10104;50.732;10.174;2023-07-29T02:14:55;97264.19;;;19.81;100.00
19884;BME280;10104;50.732;10.174;2023-07-29T02:17:17;97264.50;;;19.95;100.00
19884;BME280;10104;50.732;10.174;2023-07-29T02:19:39;97258.28;;;19.84;100.00
19884;BME280;10104;50.732;10.174;2023-07-29T02:22:00;97257.50;;;19.89;100.00
19884;BME280;10104;50.732;10.174;2023-07-29T02:24:22;97249.44;;;19.94;100.00
19884;BME280;10104;50.732;10.174;2023-07-29T02:26:43;97247.50;;;19.74;100.00
19884;BME280;10104;50.732;10.174;2023-07-29T02:29:05;97240.53;;;19.83;100.00
19884;BME280;10104;50.732;10.174;2023-07-29T02:31:26;97238.97;;;19.92;100.00
19884;BME280;10104;50.732;10.174;2023-07-29T02:33:48;97240.84;;;19.92;100.00
19884;BME280;10104;50.732;10.174;2023-07-29T02:36:12;97240.44;;;19.58;100.00
19884;BME280;10104;50.732;10.174;2023-07-29T02:38:34;97248.69;;;19.46;100.00
19884;BME280;10104;50.732;10.174;2023-07-29T02:40:56;97249.25;;;19.48;100.00
19884;BME280;10104;50.732;10.174;2023-07-29T02:43:18;97244.91;;;19.42;100.00
19884;BME280;10104;50.732;10.174;2023-07-29T02:45:39;97246.00;;;19.46;100.00
19884;BME280;10104;50.732;10.174;2023-07-29T02:48:01;97247.91;;;19.51;100.00
19884;BME280;10104;50.732;10.174;2023-07-29T02:50:22;97243.41;;;19.56;100.00
19884;BME280;10104;50.732;10.174;2023-07-29T02:52:44;97238.31;;;19.65;100.00
19884;BME280;10104;50.732;10.174;2023-07-29T02:55:06;97235.66;;;19.70;100.00
19884;BME280;10104;50.732;10.174;2023-07-29T02:57:27;97234.56;;;19.66;100.00
19884;BME280;10104;50.732;10.174;2023-07-29T02:59:49;97238.34;;;19.70;100.00
19884;BME280;10104;50.732;10.174;2023-07-29T03:02:11;97237.00;;;19.67;100.00
19884;BME280;10104;50.732;10.174;2023-07-29T03:04:32;97239.41;;;19.69;100.00
19884;BME280;10104;50.732;10.174;2023-07-29T03:06:54;97240.22;;;19.69;100.00
19884;BME280;10104;50.732;10.174;2023-07-29T03:09:16;97233.50;;;19.72;100.00
19884;BME280;10104;50.732;10.174;2023-07-29T03:11:38;97236.78;;;19.79;100.00
19884;BME280;10104;50.732;10.174;2023-07-29T03:13:59;97235.41;;;19.76;100.00
19884;BME280;10104;50.732;10.174;2023-07-29T03:16:22;97233.78;;;19.75;100.00
19884;BME280;10104;50.732;10.174;2023-07-29T03:18:44;97222.50;;;19.68;100.00
19884;BME280;10104;50.732;10.174;2023-07-29T03:21:06;97223.59;;;19.72;100.00
19884;BME280;10104;50.732;10.174;2023-07-29T03:23:28;97219.28;;;19.71;100.00
19884;BME280;10104;50.732;10.174;2023-07-29T03:25:50;97218.22;;;19.77;100.00
19884;BME280;10104;50.732;10.174;2023-07-29T03:28:12;97210.47;;;19.81;100.00
19884;BME280;10104;50.732;10.174;2023-07-29T03:30:34;97205.34;;;19.85;100.00
19884;BME280;10104;50.732;10.174;2023-07-29T03:32:55;97206.47;;;19.99;100.00
19884;BME280;10104;50.732;10.174;2023-07-29T03:35:17;97203.41;;;19.65;100.00
19884;BME280;10104;50.732;10.174;2023-07-29T03:37:39;97202.63;;;19.74;100.00
19884;BME280;10104;50.732;10.174;2023-07-29T03:40:00;97202.88;;;19.68;100.00
19884;BME280;10104;50.732;10.174;2023-07-29T03:42:25;97207.16;;;19.64;100.00
19884;BME280;10104;50.732;10.174;2023-07-29T03:44:47;97200.19;;;19.68;100.00
19884;BME280;10104;50.732;10.174;2023-07-29T03:47:08;97201.03;;;19.78;100.00
19884;BME280;10104;50.732;10.174;2023-07-29T03:49:30;97203.22;;;19.87;100.00
19884;BME280;10104;50.732;10.174;2023-07-29T03:51:51;97201.03;;;19.78;100.00
19884;BME280;10104;50.732;10.174;2023-07-29T03:54:13;97209.34;;;19.77;100.00
19884;BME280;10104;50.732;10.174;2023-07-29T03:56:34;97209.66;;;19.86;100.00
19884;BME280;10104;50.732;10.174;2023-07-29T03:59:04;97213.09;;;19.76;100.00
19884;BME280;10104;50.732;10.174;2023-07-29T04:01:26;97203.22;;;19.92;100.00
19884;BME280;10104;50.732;10.174;2023-07-29T04:03:47;97201.91;;;19.99;100.00
19884;BME280;10104;50.732;10.174;2023-07-29T04:06:09;97202.19;;;20.08;100.00
19884;BME280;10104;50.732;10.174;2023-07-29T04:08:31;97207.03;;;20.16;100.00
19884;BME280;10104;50.732;10.174;2023-07-29T04:10:52;97208.94;;;20.26;100.00
19884;BME280;10104;50.732;10.174;2023-07-29T04:13:14;97204.94;;;20.33;100.00
19884;BME280;10104;50.732;10.174;2023-07-29T04:15:35;97196.38;;;20.41;100.00
19884;BME280;10104;50.732;10.174;2023-07-29T04:17:57;97207.38;;;20.45;100.00
19884;BME280;10104;50.732;10.174;2023-07-29T04:20:19;97202.56;;;20.47;100.00
19884;BME280;10104;50.732;10.174;2023-07-29T04:22:40;97213.03;;;20.43;100.00
19884;BME280;10104;50.732;10.174;2023-07-29T04:25:02;97203.09;;;20.49;100.00
19884;BME280;10104;50.732;10.174;2023-07-29T04:27:25;97193.41;;;20.58;100.00
19884;BME280;10104;50.732;10.174;2023-07-29T04:29:47;97181.84;;;20.78;100.00
19884;BME280;10104;50.732;10.174;2023-07-29T04:32:09;97186.66;;;20.81;100.00
19884;BME280;10104;50.732;10.174;2023-07-29T04:34:31;97189.91;;;20.78;100.00
19884;BME280;10104;50.732;10.174;2023-07-29T04:36:52;97189.63;;;20.89;100.00
19884;BME280;10104;50.732;10.174;2023-07-29T04:39:14;97189.34;;;20.96;100.00
19884;BME280;10104;50.732;10.174;2023-07-29T04:41:36;97183.69;;;21.03;100.00
19884;BME280;10104;50.732;10.174;2023-07-29T04:43:58;97191.22;;;21.11;100.00
19884;BME280;10104;50.732;10.174;2023-07-29T04:46:19;97197.13;;;21.28;100.00
19884;BME280;10104;50.732;10.174;2023-07-29T04:48:41;97193.84;;;21.36;99.91
19884;BME280;10104;50.732;10.174;2023-07-29T04:51:02;97184.94;;;21.46;99.90
19884;BME280;10104;50.732;10.174;2023-07-29T04:53:24;97183.31;;;21.45;100.00
19884;BME280;10104;50.732;10.174;2023-07-29T04:55:45;97172.53;;;21.50;100.00
19884;BME280;10104;50.732;10.174;2023-07-29T04:58:07;97167.31;;;21.68;98.68
19884;BME280;10104;50.732;10.174;2023-07-29T05:00:29;97154.09;;;21.77;98.24
19884;BME280;10104;50.732;10.174;2023-07-29T05:02:51;97159.47;;;21.77;98.38
19884;BME280;10104;50.732;10.174;2023-07-29T05:05:13;97162.75;;;21.69;99.26
19884;BME280;10104;50.732;10.174;2023-07-29T05:07:34;97167.31;;;21.68;99.55
19884;BME280;10104;50.732;10.174;2023-07-29T05:09:56;97159.69;;;21.86;98.76
19884;BME280;10104;50.732;10.174;2023-07-29T05:12:17;97167.75;;;21.96;98.62
19884;BME280;10104;50.732;10.174;2023-07-29T05:14:39;97157.72;;;22.06;97.93
19884;BME280;10104;50.732;10.174;2023-07-29T05:17:00;97162.94;;;22.32;95.70
19884;BME280;10104;50.732;10.174;2023-07-29T05:19:22;97167.59;;;22.21;96.29
19884;BME280;10104;50.732;10.174;2023-07-29T05:21:44;97153.53;;;22.24;96.43
19884;BME280;10104;50.732;10.174;2023-07-29T05:24:05;97157.00;;;22.30;96.24
19884;BME280;10104;50.732;10.174;2023-07-29T05:26:27;97153.84;;;22.17;96.90
19884;BME280;10104;50.732;10.174;2023-07-29T05:28:48;97162.22;;;22.21;95.90
19884;BME280;10104;50.732;10.174;2023-07-29T05:31:10;97160.06;;;22.18;95.95
19884;BME280;10104;50.732;10.174;2023-07-29T05:33:31;97160.91;;;22.13;95.19
19884;BME280;10104;50.732;10.174;2023-07-29T05:35:53;97158.88;;;21.85;96.91
19884;BME280;10104;50.732;10.174;2023-07-29T05:38:14;97176.91;;;21.95;96.44
19884;BME280;10104;50.732;10.174;2023-07-29T05:40:36;97174.56;;;21.78;97.59
19884;BME280;10104;50.732;10.174;2023-07-29T05:42:57;97175.63;;;21.82;97.24
19884;BME280;10104;50.732;10.174;2023-07-29T05:45:19;97183.66;;;21.92;95.76
19884;BME280;10104;50.732;10.174;2023-07-29T05:47:41;97178.28;;;21.87;96.62
19884;BME280;10104;50.732;10.174;2023-07-29T05:50:03;97176.41;;;21.88;96.98
19884;BME280;10104;50.732;10.174;2023-07-29T05:52:26;97180.25;;;21.71;97.67
19884;BME280;10104;50.732;10.174;2023-07-29T05:54:47;97188.59;;;21.75;97.58
19884;BME280;10104;50.732;10.174;2023-07-29T05:57:09;97184.31;;;21.69;98.25
19884;BME280;10104;50.732;10.174;2023-07-29T05:59:31;97183.13;;;21.85;97.93
19884;BME280;10104;50.732;10.174;2023-07-29T06:01:52;97186.28;;;22.07;96.79
19884;BME280;10104;50.732;10.174;2023-07-29T06:04:14;97184.91;;;22.15;96.56
19884;BME280;10104;50.732;10.174;2023-07-29T06:06:35;97186.91;;;22.38;95.82
19884;BME280;10104;50.732;10.174;2023-07-29T06:08:58;97183.63;;;22.41;94.83
19884;BME280;10104;50.732;10.174;2023-07-29T06:11:19;97182.00;;;22.45;94.56
19884;BME280;10104;50.732;10.174;2023-07-29T06:13:41;97188.47;;;22.44;94.78
19884;BME280;10104;50.732;10.174;2023-07-29T06:16:02;97191.56;;;22.23;95.14
19884;BME280;10104;50.732;10.174;2023-07-29T06:18:24;97193.97;;;22.29;95.51
19884;BME280;10104;50.732;10.174;2023-07-29T06:20:46;97192.84;;;22.40;94.90
19884;BME280;10104;50.732;10.174;2023-07-29T06:23:08;97184.75;;;22.40;94.82
19884;BME280;10104;50.732;10.174;2023-07-29T06:25:29;97191.34;;;22.19;95.14
19884;BME280;10104;50.732;10.174;2023-07-29T06:27:51;97192.50;;;22.47;94.78
19884;BME280;10104;50.732;10.174;2023-07-29T06:30:12;97195.63;;;22.64;93.88
19884;BME280;10104;50.732;10.174;2023-07-29T06:32:34;97192.31;;;22.77;93.61
19884;BME280;10104;50.732;10.174;2023-07-29T06:34:56;97185.41;;;22.90;93.01
19884;BME280;10104;50.732;10.174;2023-07-29T06:37:17;97190.47;;;22.96;91.62
19884;BME280;10104;50.732;10.174;2023-07-29T06:39:39;97187.06;;;22.86;91.43
19884;BME280;10104;50.732;10.174;2023-07-29T06:42:00;97193.88;;;22.78;91.41
19884;BME280;10104;50.732;10.174;2023-07-29T06:44:23;97197.50;;;22.64;92.51
19884;BME280;10104;50.732;10.174;2023-07-29T06:46:44;97197.16;;;22.75;92.77
19884;BME280;10104;50.732;10.174;2023-07-29T06:49:06;97187.75;;;22.68;91.87
19884;BME280;10104;50.732;10.174;2023-07-29T06:51:28;97188.06;;;22.61;92.61
19884;BME280;10104;50.732;10.174;2023-07-29T06:53:53;97185.53;;;22.41;92.67
19884;BME280;10104;50.732;10.174;2023-07-29T06:56:15;97198.81;;;22.32;93.86
19884;BME280;10104;50.732;10.174;2023-07-29T06:58:36;97192.22;;;22.09;94.30
19884;BME280;10104;50.732;10.174;2023-07-29T07:00:58;97190.56;;;22.13;95.05
19884;BME280;10104;50.732;10.174;2023-07-29T07:03:19;97198.22;;;22.40;93.71
19884;BME280;10104;50.732;10.174;2023-07-29T07:05:41;97194.31;;;22.56;93.92
19884;BME280;10104;50.732;10.174;2023-07-29T07:08:03;97198.91;;;22.56;93.60
19884;BME280;10104;50.732;10.174;2023-07-29T07:10:24;97198.19;;;22.79;93.55
19884;BME280;10104;50.732;10.174;2023-07-29T07:12:46;97198.91;;;22.90;92.76
19884;BME280;10104;50.732;10.174;2023-07-29T07:15:08;97203.97;;;22.96;92.89
19884;BME280;10104;50.732;10.174;2023-07-29T07:17:29;97197.44;;;23.03;92.21
19884;BME280;10104;50.732;10.174;2023-07-29T07:19:51;97195.59;;;22.98;91.86
19884;BME280;10104;50.732;10.174;2023-07-29T07:22:12;97195.38;;;22.94;91.38
19884;BME280;10104;50.732;10.174;2023-07-29T07:24:34;97191.44;;;23.11;91.67
19884;BME280;10104;50.732;10.174;2023-07-29T07:26:55;97190.28;;;23.40;90.41
19884;BME280;10104;50.732;10.174;2023-07-29T07:29:17;97180.72;;;23.53;89.56
19884;BME280;10104;50.732;10.174;2023-07-29T07:31:39;97181.22;;;23.79;87.82
19884;BME280;10104;50.732;10.174;2023-07-29T07:34:00;97183.28;;;23.87;87.29
19884;BME280;10104;50.732;10.174;2023-07-29T07:36:24;97187.25;;;23.71;87.59
19884;BME280;10104;50.732;10.174;2023-07-29T07:38:45;97184.63;;;23.66;87.98
19884;BME280;10104;50.732;10.174;2023-07-29T07:41:07;97192.22;;;23.88;87.77
19884;BME280;10104;50.732;10.174;2023-07-29T07:43:28;97193.44;;;23.95;85.97
19884;BME280;10104;50.732;10.174;2023-07-29T07:45:51;97180.53;;;24.11;87.17
19884;BME280;10104;50.732;10.174;2023-07-29T07:48:13;97182.00;;;24.22;85.69
19884;BME280;10104;50.732;10.174;2023-07-29T07:50:34;97182.69;;;24.09;85.76
19884;BME280;10104;50.732;10.174;2023-07-29T07:52:56;97182.28;;;24.39;84.96
19884;BME280;10104;50.732;10.174;2023-07-29T07:55:17;97176.50;;;24.46;83.62
19884;BME280;10104;50.732;10.174;2023-07-29T07:57:39;97181.78;;;24.70;83.72
19884;BME280;10104;50.732;10.174;2023-07-29T08:00:00;97175.81;;;24.73;82.83
19884;BME280;10104;50.732;10.174;2023-07-29T08:02:22;97171.16;;;24.92;82.21
19884;BME280;10104;50.732;10.174;2023-07-29T08:04:43;97166.59;;;24.74;81.71
19884;BME280;10104;50.732;10.174;2023-07-29T08:07:05;97166.34;;;24.70;81.79
19884;BME280;10104;50.732;10.174;2023-07-29T08:09:27;97156.00;;;24.91;81.37
19884;BME280;10104;50.732;10.174;2023-07-29T08:11:48;97160.84;;;25.08;79.39
19884;BME280;10104;50.732;10.174;2023-07-29T08:14:10;97163.88;;;25.20;78.82
19884;BME280;10104;50.732;10.174;2023-07-29T08:16:31;97155.50;;;24.89;79.79
19884;BME280;10104;50.732;10.174;2023-07-29T08:18:53;97154.06;;;24.27;79.16
19884;BME280;10104;50.732;10.174;2023-07-29T08:21:15;97149.34;;;24.18;81.52
19884;BME280;10104;50.732;10.174;2023-07-29T08:23:36;97160.16;;;24.18;81.15
19884;BME280;10104;50.732;10.174;2023-07-29T08:26:01;97161.94;;;23.86;82.55
19884;BME280;10104;50.732;10.174;2023-07-29T08:28:23;97164.03;;;23.22;84.35
19884;BME280;10104;50.732;10.174;2023-07-29T08:30:45;97165.09;;;23.21;86.06
19884;BME280;10104;50.732;10.174;2023-07-29T08:33:06;97162.66;;;23.25;87.59
19884;BME280;10104;50.732;10.174;2023-07-29T08:35:28;97155.91;;;22.98;87.44
19884;BME280;10104;50.732;10.174;2023-07-29T08:37:49;97160.03;;;23.15;88.01
19884;BME280;10104;50.732;10.174;2023-07-29T08:40:12;97165.00;;;23.08;87.50
19884;BME280;10104;50.732;10.174;2023-07-29T08:42:35;97172.28;;;22.78;88.92
19884;BME280;10104;50.732;10.174;2023-07-29T08:45:07;97181.81;;;22.66;89.56
19884;BME280;10104;50.732;10.174;2023-07-29T08:47:29;97175.56;;;22.75;90.59
19884;BME280;10104;50.732;10.174;2023-07-29T08:49:51;97168.72;;;22.88;90.68
19884;BME280;10104;50.732;10.174;2023-07-29T08:52:14;97171.81;;;23.00;90.43
19884;BME280;10104;50.732;10.174;2023-07-29T08:54:36;97174.34;;;23.20;89.56
19884;BME280;10104;50.732;10.174;2023-07-29T08:56:59;97178.75;;;23.35;88.88
19884;BME280;10104;50.732;10.174;2023-07-29T08:59:20;97184.50;;;23.52;89.02
19884;BME280;10104;50.732;10.174;2023-07-29T09:01:42;97187.16;;;23.81;88.43
19884;BME280;10104;50.732;10.174;2023-07-29T09:04:05;97183.56;;;23.86;88.74
19884;BME280;10104;50.732;10.174;2023-07-29T09:06:26;97182.22;;;24.07;87.52
19884;BME280;10104;50.732;10.174;2023-07-29T09:08:49;97188.44;;;24.26;86.62
19884;BME280;10104;50.732;10.174;2023-07-29T09:11:14;97195.47;;;24.27;84.47
19884;BME280;10104;50.732;10.174;2023-07-29T09:13:35;97201.56;;;24.19;86.02
19884;BME280;10104;50.732;10.174;2023-07-29T09:15:57;97202.00;;;24.02;84.98
19884;BME280;10104;50.732;10.174;2023-07-29T09:18:19;97205.59;;;24.16;85.88
19884;BME280;10104;50.732;10.174;2023-07-29T09:20:41;97204.63;;;24.07;85.19
19884;BME280;10104;50.732;10.174;2023-07-29T09:23:07;97195.63;;;24.36;84.81
19884;BME280;10104;50.732;10.174;2023-07-29T09:25:29;97196.75;;;24.67;84.64
19884;BME280;10104;50.732;10.174;2023-07-29T09:27:51;97196.53;;;24.45;83.83
19884;BME280;10104;50.732;10.174;2023-07-29T09:30:16;97205.56;;;24.22;83.40
19884;BME280;10104;50.732;10.174;2023-07-29T09:32:39;97197.84;;;24.10;86.26
19884;BME280;10104;50.732;10.174;2023-07-29T09:35:00;97188.88;;;24.33;83.67
19884;BME280;10104;50.732;10.174;2023-07-29T09:37:22;97182.19;;;24.44;84.75
19884;BME280;10104;50.732;10.174;2023-07-29T09:39:45;97176.66;;;24.54;84.75
19884;BME280;10104;50.732;10.174;2023-07-29T09:42:11;97178.31;;;25.15;83.12
19884;BME280;10104;50.732;10.174;2023-07-29T09:44:36;97180.16;;;25.33;80.88
19884;BME280;10104;50.732;10.174;2023-07-29T09:46:58;97182.66;;;25.44;79.03
19884;BME280;10104;50.732;10.174;2023-07-29T09:49:22;97182.06;;;25.33;80.05
19884;BME280;10104;50.732;10.174;2023-07-29T09:51:43;97179.91;;;25.03;80.06
19884;BME280;10104;50.732;10.174;2023-07-29T09:54:05;97172.13;;;25.42;77.00
19884;BME280;10104;50.732;10.174;2023-07-29T09:56:27;97176.34;;;25.48;79.41
19884;BME280;10104;50.732;10.174;2023-07-29T09:58:48;97174.16;;;25.36;75.49
19884;BME280;10104;50.732;10.174;2023-07-29T10:01:10;97167.22;;;25.30;75.26
19884;BME280;10104;50.732;10.174;2023-07-29T10:03:33;97167.41;;;25.75;78.59
19884;BME280;10104;50.732;10.174;2023-07-29T10:05:55;97165.09;;;26.18;79.07
19884;BME280;10104;50.732;10.174;2023-07-29T10:08:17;97161.44;;;26.00;72.49
19884;BME280;10104;50.732;10.174;2023-07-29T10:10:43;97174.84;;;25.83;73.92
19884;BME280;10104;50.732;10.174;2023-07-29T10:13:05;97167.50;;;25.97;74.89
19884;BME280;10104;50.732;10.174;2023-07-29T10:15:29;97164.00;;;25.83;75.19
19884;BME280;10104;50.732;10.174;2023-07-29T10:17:51;97169.25;;;26.29;75.93
19884;BME280;10104;50.732;10.174;2023-07-29T10:20:13;97169.31;;;26.60;74.89
19884;BME280;10104;50.732;10.174;2023-07-29T10:22:39;97162.53;;;26.71;72.72
19884;BME280;10104;50.732;10.174;2023-07-29T10:25:04;97159.75;;;26.40;71.61
19884;BME280;10104;50.732;10.174;2023-07-29T10:27:30;97155.91;;;26.64;73.33
19884;BME280;10104;50.732;10.174;2023-07-29T10:29:55;97157.66;;;27.13;70.17
19884;BME280;10104;50.732;10.174;2023-07-29T10:32:17;97154.34;;;26.93;69.46
19884;BME280;10104;50.732;10.174;2023-07-29T10:34:39;97150.44;;;27.08;68.88
19884;BME280;10104;50.732;10.174;2023-07-29T10:37:01;97160.75;;;26.97;69.74
19884;BME280;10104;50.732;10.174;2023-07-29T10:39:25;97160.31;;;27.35;65.36
19884;BME280;10104;50.732;10.174;2023-07-29T10:42:01;97164.50;;;26.57;66.91
19884;BME280;10104;50.732;10.174;2023-07-29T10:47:16;97167.91;;;25.91;64.24
19884;BME280;10104;50.732;10.174;2023-07-29T10:49:42;97162.03;;;25.61;67.01
19884;BME280;10104;50.732;10.174;2023-07-29T10:52:04;97154.25;;;25.41;68.73
19884;BME280;10104;50.732;10.174;2023-07-29T10:54:26;97158.06;;;25.54;71.75
19884;BME280;10104;50.732;10.174;2023-07-29T10:56:49;97153.25;;;25.23;73.28
19884;BME280;10104;50.732;10.174;2023-07-29T11:01:40;97142.56;;;25.95;68.72
19884;BME280;10104;50.732;10.174;2023-07-29T11:04:25;97147.22;;;26.53;68.30
19884;BME280;10104;50.732;10.174;2023-07-29T11:09:42;97140.22;;;26.61;62.21
19884;BME280;10104;50.732;10.174;2023-07-29T11:12:51;97137.06;;;26.67;62.46
19884;BME280;10104;50.732;10.174;2023-07-29T11:15:17;97128.00;;;26.94;60.13
19884;BME280;10104;50.732;10.174;2023-07-29T11:20:15;97136.41;;;27.15;58.77
19884;BME280;10104;50.732;10.174;2023-07-29T11:22:38;97134.56;;;27.41;56.67
19884;BME280;10104;50.732;10.174;2023-07-29T11:25:00;97128.59;;;27.61;59.19
19884;BME280;10104;50.732;10.174;2023-07-29T11:27:21;97133.84;;;26.87;61.93
19884;BME280;10104;50.732;10.174;2023-07-29T11:29:43;97123.69;;;27.32;65.28
19884;BME280;10104;50.732;10.174;2023-07-29T11:32:05;97131.75;;;26.84;62.08
19884;BME280;10104;50.732;10.174;2023-07-29T11:34:33;97133.63;;;26.53;64.24
19884;BME280;10104;50.732;10.174;2023-07-29T11:36:54;97126.47;;;26.57;66.82
19884;BME280;10104;50.732;10.174;2023-07-29T11:39:16;97129.47;;;26.55;64.26
19884;BME280;10104;50.732;10.174;2023-07-29T11:41:37;97118.38;;;26.43;60.05
19884;BME280;10104;50.732;10.174;2023-07-29T11:43:59;97118.25;;;27.32;60.02
19884;BME280;10104;50.732;10.174;2023-07-29T11:46:21;97117.38;;;27.54;60.46
19884;BME280;10104;50.732;10.174;2023-07-29T11:48:44;97119.03;;;27.90;55.76
19884;BME280;10104;50.732;10.174;2023-07-29T11:51:06;97115.69;;;28.01;53.73
19884;BME280;10104;50.732;10.174;2023-07-29T11:53:29;97112.00;;;28.49;54.28
19884;BME280;10104;50.732;10.174;2023-07-29T11:55:51;97108.38;;;29.00;52.86
19884;BME280;10104;50.732;10.174;2023-07-29T11:58:15;97117.91;;;29.23;51.68
19884;BME280;10104;50.732;10.174;2023-07-29T12:00:37;97113.88;;;28.66;51.71
19884;BME280;10104;50.732;10.174;2023-07-29T12:02:59;97104.03;;;28.18;53.80
19884;BME280;10104;50.732;10.174;2023-07-29T12:05:22;97109.44;;;28.44;53.01
19884;BME280;10104;50.732;10.174;2023-07-29T12:07:45;97109.94;;;28.37;52.74
19884;BME280;10104;50.732;10.174;2023-07-29T12:10:06;97098.81;;;28.85;50.64
19884;BME280;10104;50.732;10.174;2023-07-29T12:12:28;97104.63;;;28.41;51.57
19884;BME280;10104;50.732;10.174;2023-07-29T12:14:50;97111.88;;;29.09;51.83
19884;BME280;10104;50.732;10.174;2023-07-29T12:17:11;97102.34;;;28.77;50.10
19884;BME280;10104;50.732;10.174;2023-07-29T12:19:34;97102.22;;;28.56;50.19
19884;BME280;10104;50.732;10.174;2023-07-29T12:21:56;97092.88;;;28.83;51.80
19884;BME280;10104;50.732;10.174;2023-07-29T12:24:17;97083.69;;;29.34;51.29
19884;BME280;10104;50.732;10.174;2023-07-29T12:26:42;97080.84;;;29.22;50.82
19884;BME280;10104;50.732;10.174;2023-07-29T12:29:16;97088.94;;;28.29;51.80
19884;BME280;10104;50.732;10.174;2023-07-29T12:31:38;97102.50;;;27.60;55.28
19884;BME280;10104;50.732;10.174;2023-07-29T12:33:59;97097.34;;;27.11;56.31